createdAt,value
2023-02-06T00:02:58.347Z,4.97
2023-02-06T00:08:01.114Z,5.93
2023-02-06T00:13:03.669Z,5.50
2023-02-06T00:18:07.404Z,4.70
2023-02-06T00:23:09.950Z,4.95
2023-02-06T00:28:12.578Z,5.13
2023-02-06T00:33:16.528Z,5.77
2023-02-06T00:38:19.013Z,3.97
2023-02-06T00:43:21.458Z,4.37
2023-02-06T00:48:26.168Z,4.17
2023-02-06T00:53:28.674Z,4.97
2023-02-06T00:58:31.252Z,3.67
2023-02-06T01:03:35.540Z,4.10
2023-02-06T01:13:40.328Z,3.93
2023-02-06T01:18:44.816Z,4.23
2023-02-06T01:23:48.606Z,4.90
2023-02-06T01:28:51.365Z,3.85
2023-02-06T01:33:56.247Z,4.90
2023-02-06T01:38:58.715Z,3.77
2023-02-06T01:44:10.543Z,4.73
2023-02-06T01:49:16.183Z,4.77
2023-02-06T01:54:20.033Z,4.73
2023-02-06T01:59:22.978Z,4.63
2023-02-06T02:04:29.330Z,4.07
2023-02-06T02:09:32.727Z,3.93
2023-02-06T02:14:35.507Z,3.10
2023-02-06T02:19:59.004Z,4.43
2023-02-06T02:25:13.704Z,3.90
2023-02-06T02:30:25.589Z,4.93
2023-02-06T02:35:36.268Z,5.57
2023-02-06T02:40:44.861Z,5.00
2023-02-06T02:45:49.323Z,5.00
2023-02-06T02:50:53.941Z,6.00
2023-02-06T02:55:56.502Z,4.30
2023-02-06T03:01:01.550Z,5.17
2023-02-06T03:06:16.764Z,5.47
2023-02-06T03:11:20.946Z,5.30
2023-02-06T03:21:28.914Z,4.93
2023-02-06T03:26:32.646Z,6.07
2023-02-06T03:31:39.200Z,6.00
2023-02-06T03:36:43.126Z,6.53
2023-02-06T03:41:46.731Z,5.72
2023-02-06T03:46:50.282Z,6.20
2023-02-06T03:51:56.759Z,5.75
2023-02-06T03:57:00.985Z,5.77
2023-02-06T04:07:12.834Z,4.73
2023-02-06T04:12:15.481Z,5.77
2023-02-06T04:17:36.087Z,4.53
2023-02-06T04:22:42.561Z,6.17
2023-02-06T04:32:47.515Z,5.37
2023-02-06T04:37:51.331Z,5.53
2023-02-06T04:42:53.760Z,4.40
2023-02-06T04:47:58.536Z,3.93
2023-02-06T04:53:03.262Z,4.00
2023-02-06T04:58:05.764Z,3.58
2023-02-06T05:03:08.233Z,4.53
2023-02-06T05:08:12.079Z,4.53
2023-02-06T05:13:14.702Z,5.85
2023-02-06T05:18:17.515Z,5.07
2023-02-06T05:23:21.390Z,5.40
2023-02-06T05:28:23.959Z,5.07
2023-02-06T05:33:26.999Z,4.13
2023-02-06T05:38:30.853Z,4.07
2023-02-06T05:43:33.729Z,2.47
2023-02-06T05:48:36.322Z,1.70
2023-02-06T05:53:40.629Z,2.30
2023-02-06T06:03:45.691Z,4.03
2023-02-06T06:08:49.789Z,5.80
2023-02-06T06:13:52.853Z,5.32
2023-02-06T06:18:55.849Z,5.40
2023-02-06T06:23:59.884Z,7.77
2023-02-06T06:29:02.518Z,6.72
2023-02-06T06:34:04.955Z,6.13
2023-02-06T06:39:29.236Z,7.30
2023-02-06T06:44:31.961Z,5.63
2023-02-06T06:49:34.626Z,7.13
2023-02-06T06:54:38.532Z,8.23
2023-02-06T06:59:41.479Z,7.22
2023-02-06T07:04:43.968Z,6.80
2023-02-06T07:09:47.987Z,5.63
2023-02-06T07:14:50.621Z,7.18
2023-02-06T07:19:53.288Z,6.30
2023-02-06T07:24:57.230Z,6.40
2023-02-06T07:30:00.536Z,7.30
2023-02-06T07:35:03.072Z,7.30
2023-02-06T07:40:07.434Z,7.45
2023-02-06T07:45:10.545Z,8.02
2023-02-06T07:50:13.112Z,7.93
2023-02-06T07:55:17.271Z,9.65
2023-02-06T08:00:20.125Z,8.07
2023-02-06T08:05:22.616Z,7.97
2023-02-06T08:10:44.706Z,8.15
2023-02-06T08:16:25.321Z,7.57
2023-02-06T08:21:28.283Z,7.78
2023-02-06T08:26:31.440Z,8.40
2023-02-06T08:31:36.504Z,8.15
2023-02-06T08:36:39.413Z,6.82
2023-02-06T08:41:43.283Z,7.70
2023-02-06T08:46:47.799Z,6.72
2023-02-06T08:51:50.684Z,6.88
2023-02-06T08:56:56.309Z,7.80
2023-02-06T09:02:00.094Z,5.78
2023-02-06T09:07:02.578Z,6.57
2023-02-06T09:12:05.507Z,6.22
2023-02-06T09:22:11.552Z,6.13
2023-02-06T09:27:14.078Z,5.75
2023-02-06T09:32:16.537Z,5.18
2023-02-06T09:37:21.339Z,5.13
2023-02-06T09:42:28.263Z,5.22
2023-02-06T09:47:32.107Z,5.00
2023-02-06T09:52:46.651Z,4.15
2023-02-06T09:57:52.522Z,4.40
2023-02-06T10:03:04.074Z,4.35
2023-02-06T10:08:15.327Z,4.70
2023-02-06T10:13:21.431Z,4.88
2023-02-06T10:18:27.807Z,4.63
2023-02-06T10:23:34.419Z,5.55
2023-02-06T10:28:37.197Z,4.85
2023-02-06T10:33:43.609Z,4.60
2023-02-06T10:39:00.612Z,4.72
2023-02-06T10:44:05.940Z,4.22
2023-02-06T10:49:12.706Z,4.18
2023-02-06T10:54:19.323Z,4.82
2023-02-06T10:59:24.694Z,4.20
2023-02-06T11:04:30.497Z,4.30
2023-02-06T11:09:34.605Z,4.18
2023-02-06T11:19:42.290Z,4.10
2023-02-06T11:24:59.701Z,4.45
2023-02-06T11:30:06.160Z,3.92
2023-02-06T11:35:15.983Z,4.07
2023-02-06T11:40:23.380Z,4.22
2023-02-06T11:45:29.206Z,4.38
2023-02-06T11:50:34.286Z,3.90
2023-02-06T11:55:38.332Z,4.70
2023-02-06T12:00:55.666Z,4.60
2023-02-06T12:06:00.850Z,4.28
2023-02-06T12:11:06.510Z,4.18
2023-02-06T12:16:14.047Z,4.50
2023-02-06T12:21:17.804Z,3.97
2023-02-06T12:26:23.331Z,3.95
2023-02-06T12:31:32.064Z,4.22
2023-02-06T12:36:36.343Z,4.50
2023-02-06T12:41:43.909Z,4.70
2023-02-06T12:46:50.190Z,4.63
2023-02-06T12:51:55.115Z,3.95
2023-02-06T12:57:00.226Z,5.22
2023-02-06T13:02:16.468Z,3.80
2023-02-06T13:07:21.121Z,4.80
2023-02-06T13:12:24.574Z,3.72
2023-02-06T13:17:32.760Z,4.17
2023-02-06T13:22:39.400Z,4.93
2023-02-06T13:27:41.950Z,5.20
2023-02-06T13:32:50.280Z,4.65
2023-02-06T13:38:10.300Z,4.68
2023-02-06T13:43:17.378Z,4.68
2023-02-06T13:48:37.529Z,4.70
2023-02-06T13:53:53.930Z,4.50
2023-02-06T13:59:06.089Z,4.72
2023-02-06T14:04:11.564Z,5.57
2023-02-06T14:09:30.410Z,5.82
2023-02-06T14:14:43.833Z,5.03
2023-02-06T14:19:52.040Z,5.10
2023-02-06T14:25:09.545Z,4.47
2023-02-06T14:30:19.790Z,5.20
2023-02-06T14:35:28.453Z,4.43
2023-02-06T14:40:34.537Z,4.53
2023-02-06T14:45:42.000Z,4.53
2023-02-06T14:50:49.259Z,4.25
2023-02-06T14:55:51.797Z,4.22
2023-02-06T15:00:54.779Z,4.18
2023-02-06T15:06:03.456Z,4.50
2023-02-06T15:11:07.738Z,3.10
2023-02-06T15:21:16.182Z,3.63
2023-02-06T15:26:24.070Z,4.10
2023-02-06T15:31:27.834Z,3.87
2023-02-06T15:36:33.368Z,4.47
2023-02-06T15:41:36.075Z,4.50
2023-02-06T15:46:38.968Z,4.37
2023-02-06T15:51:51.706Z,4.70
2023-02-06T15:56:57.680Z,4.07
2023-02-06T16:02:00.913Z,4.53
2023-02-06T16:07:07.373Z,4.90
2023-02-06T16:12:10.487Z,3.63
2023-02-06T16:17:24.566Z,3.60
2023-02-06T16:22:28.954Z,2.63
2023-02-06T16:32:35.324Z,3.40
2023-02-06T16:37:39.176Z,3.28
2023-02-06T16:42:44.141Z,3.85
2023-02-06T16:47:46.922Z,4.20
2023-02-06T16:52:52.210Z,4.23
2023-02-06T16:57:56.010Z,5.00
2023-02-06T17:02:58.916Z,4.30
2023-02-06T17:08:03.847Z,4.33
2023-02-06T17:13:06.295Z,4.00
2023-02-06T17:18:08.762Z,5.80
2023-02-06T17:23:12.857Z,3.70
2023-02-06T17:28:16.436Z,3.35
2023-02-06T17:33:18.980Z,3.37
2023-02-06T17:38:23.183Z,4.07
2023-02-06T17:43:25.883Z,2.60
2023-02-06T17:48:28.382Z,3.43
2023-02-06T17:53:32.336Z,2.93
2023-02-06T17:58:34.859Z,2.97
2023-02-06T18:03:37.335Z,2.57
2023-02-06T18:08:41.686Z,3.17
2023-02-06T18:18:46.859Z,3.87
2023-02-06T18:23:50.709Z,2.77
2023-02-06T18:28:53.146Z,4.43
2023-02-06T18:33:56.545Z,2.03
2023-02-06T18:39:00.416Z,3.60
2023-02-06T18:44:03.369Z,4.28
2023-02-06T18:49:06.359Z,2.67
2023-02-06T18:54:10.873Z,3.07
2023-02-06T18:59:13.693Z,4.50
2023-02-06T19:04:16.295Z,4.30
2023-02-06T19:09:20.939Z,1.93
2023-02-06T19:14:25.285Z,3.93
2023-02-06T19:24:31.685Z,2.80
2023-02-06T19:29:36.417Z,2.03
2023-02-06T19:34:39.740Z,3.40
2023-02-06T19:39:44.427Z,1.90
2023-02-06T19:44:46.940Z,3.03
2023-02-06T19:49:50.215Z,4.07
2023-02-06T19:54:54.267Z,2.90
2023-02-06T19:59:57.209Z,4.40
2023-02-06T20:05:02.407Z,4.00
2023-02-06T20:10:07.213Z,3.10
2023-02-06T20:15:10.003Z,3.57
2023-02-06T20:20:14.034Z,3.77
2023-02-06T20:25:18.167Z,3.65
2023-02-06T20:30:22.086Z,6.32
2023-02-06T20:35:24.604Z,4.15
2023-02-06T20:40:28.545Z,4.40
2023-02-06T20:45:31.095Z,3.72
2023-02-06T20:50:35.697Z,6.37
2023-02-06T20:55:44.037Z,2.67
2023-02-06T21:01:12.983Z,3.70
2023-02-06T21:06:36.476Z,4.37
2023-02-06T21:12:00.720Z,3.90
2023-02-06T21:17:03.205Z,1.20
2023-02-06T21:22:05.874Z,3.40
2023-02-06T21:27:09.547Z,4.53
2023-02-06T21:32:14.208Z,1.60
2023-02-06T21:37:17.357Z,2.33
2023-02-06T21:42:26.093Z,4.37
2023-02-06T21:47:28.637Z,2.07
2023-02-06T21:52:31.128Z,1.60
2023-02-06T21:57:35.128Z,4.37
2023-02-06T22:02:38.438Z,4.32
2023-02-06T22:07:41.062Z,5.77
2023-02-06T22:12:48.749Z,4.70
2023-02-06T22:17:51.317Z,1.67
2023-02-06T22:22:54.417Z,6.37
2023-02-06T22:27:58.436Z,3.33
2023-02-06T22:33:00.986Z,3.47
2023-02-06T22:38:03.442Z,3.17
2023-02-06T22:43:07.308Z,3.57
2023-02-06T22:48:09.818Z,8.10
2023-02-06T22:53:31.701Z,2.93
2023-02-06T22:58:35.631Z,3.97
2023-02-06T23:03:38.120Z,3.22
2023-02-06T23:08:40.935Z,2.17
2023-02-06T23:13:45.072Z,2.20
2023-02-06T23:18:47.622Z,3.72
2023-02-06T23:23:50.150Z,3.97
2023-02-06T23:28:54.336Z,2.90
2023-02-06T23:33:56.850Z,2.80
2023-02-06T23:39:01.477Z,4.43
2023-02-06T23:44:06.481Z,3.50
2023-02-06T23:49:09.611Z,5.83
2023-02-06T23:54:12.184Z,3.90
2023-02-06T23:59:16.087Z,3.97
